Terminal Aerodrome Forecast
Issued by NWS Medford, OR

Home | Current Version | Previous Version | Text Only | Print | Product List | Glossary On
Versions: 1 2 3 4 5 6 7 8 9 10 11 12 13 14 15 16 17 18 19 20 21 22 23 24 25
000
FTUS46 KMFR 131856 AAA
TAFMFR
TAF AMD
KMFR 131856Z 1319/1418 00000KT 2SM BR SCT003
      TEMPO 1319/1320 1SM BR OVC003
     FM132000 00000KT P6SM SKC
     FM140600 00000KT 4SM BR SKC
     FM141400 00000KT 1SM BR BKN001=

USA.gov is the U.S. government's official web portal to all federal, state and local government web resources and services.